Terminal Aerodrome Forecast
Issued by NWS Duluth, MN

Home | Current Version | Previous Version | Text Only | Print | Product List | Glossary On
Versions: 1 2 3 4 5 6 7 8 9 10 11 12 13 14 15 16 17 18 19 20 21 22 23 24
703
FTUS43 KDLH 291120
TAFDLH
TAF
KDLH 291120Z 2912/3012 30013G18KT P6SM -SHRA OVC010
      TEMPO 2912/2915 5SM -SHRA BR OVC008
     FM291700 30014G18KT 6SM -SHRA BR BKN014 OVC025
     FM292000 30013G18KT P6SM -SHRA SCT015 BKN025
     FM292300 30015G22KT P6SM VCSH BKN035
     FM300200 29010KT P6SM BKN045
     FM300700 29010KT P6SM SCT012 BKN020=

USA.gov is the U.S. government's official web portal to all federal, state and local government web resources and services.